Time;durP1;ratioP1;P1;durP2;ratioP2;P2;SDS_P1;SDS_P2;PMS_P1;PMS_P2;Temp;Humidity;BMP_temperature;BMP_pressure;BME280_temperature;BME280_humidity;BME280_pressure;Samples;Min_cycle;Max_cycle;Signal;HPM_P1;HPM_P2
2021/06/08 00:01:51;;;;;;;;;3.00;3.00;;;;;28.77;65.57;98466.53;6246979;23;8888;-72
2021/06/08 00:04:20;;;;;;;;;3.00;3.00;;;;;28.78;65.57;98468.09;6246537;23;9601;-72
2021/06/08 00:06:50;;;;;;;;;4.00;4.00;;;;;28.77;65.49;98463.84;6246449;23;8790;-72
2021/06/08 00:09:19;;;;;;;;;3.00;3.00;;;;;28.74;65.49;98468.09;6246476;23;8779;-72
2021/06/08 00:11:48;;;;;;;;;2.75;2.75;;;;;28.78;65.23;98471.59;6246386;23;8771;-72
2021/06/08 00:14:16;;;;;;;;;3.00;3.00;;;;;28.82;65.41;98483.22;6246504;23;8807;-72
2021/06/08 00:16:45;;;;;;;;;3.00;3.00;;;;;28.84;65.36;98477.41;6246385;23;8775;-72
2021/06/08 00:19:13;;;;;;;;;3.25;3.25;;;;;28.73;65.02;98460.34;6246400;23;8782;-72
2021/06/08 00:21:42;;;;;;;;;3.75;3.75;;;;;28.83;65.42;98481.28;6246251;23;8783;-72
2021/06/08 00:24:11;;;;;;;;;3.50;3.50;;;;;28.87;65.41;98488.25;6246132;23;8771;-72
2021/06/08 00:26:39;;;;;;;;;3.00;3.00;;;;;28.90;65.01;98486.69;6246060;23;8790;-72
2021/06/08 00:29:08;;;;;;;;;3.00;3.00;;;;;28.85;65.12;98477.00;6246157;23;8771;-72
2021/06/08 00:31:36;;;;;;;;;2.25;2.25;;;;;28.93;64.77;98494.03;6249306;23;8803;-73
2021/06/08 00:34:05;;;;;;;;;3.00;3.00;;;;;28.90;64.92;98489.41;6248080;23;8775;-73
2021/06/08 00:36:33;;;;;;;;;2.00;2.00;;;;;28.89;64.45;98488.63;6246187;23;8779;-72
2021/06/08 00:39:04;;;;;;;;;2.00;2.00;;;;;28.94;64.76;98495.59;6246084;23;8774;-73
2021/06/08 00:41:50;;;;;;;;;2.50;2.50;;;;;28.95;64.90;98505.28;6246160;23;9507;-72
2021/06/08 00:44:19;;;;;;;;;3.00;3.00;;;;;28.95;64.65;98501.78;6246014;23;8786;-72
2021/06/08 00:46:48;;;;;;;;;3.50;3.50;;;;;28.93;64.47;98507.63;6246072;23;8782;-72
2021/06/08 00:49:17;;;;;;;;;3.75;3.25;;;;;28.92;64.46;98508.00;6246426;23;8807;-72
2021/06/08 00:51:45;;;;;;;;;3.75;3.75;;;;;28.91;64.55;98528.97;6245964;23;8837;-72
2021/06/08 00:54:14;;;;;;;;;2.50;2.50;;;;;28.91;64.62;98531.69;6246119;23;8856;-73
2021/06/08 00:56:44;;;;;;;;;3.75;3.75;;;;;28.90;64.84;98530.91;6219702;23;8854;-72
2021/06/08 00:59:13;;;;;;;;;2.00;2.00;;;;;28.92;64.47;98533.22;6245703;23;8798;-75
2021/06/08 01:01:42;;;;;;;;;2.00;2.00;;;;;28.85;64.31;98517.72;6244755;23;8791;-76
2021/06/08 01:04:11;;;;;;;;;3.50;3.50;;;;;28.95;64.25;98532.44;6244964;23;9526;-76
2021/06/08 01:06:40;;;;;;;;;2.00;2.00;;;;;28.98;64.25;98526.22;6244026;23;8775;-76
2021/06/08 01:09:09;;;;;;;;;2.00;2.00;;;;;29.02;63.80;98520.78;6244746;23;8786;-74
2021/06/08 01:11:37;;;;;;;;;3.00;3.00;;;;;29.04;63.57;98521.91;6244842;23;9339;-74
2021/06/08 01:14:06;;;;;;;;;1.25;1.25;;;;;29.07;63.86;98517.66;6244704;23;8793;-76
2021/06/08 01:16:35;;;;;;;;;2.25;2.25;;;;;29.07;63.37;98512.97;6244142;23;8794;-76
2021/06/08 01:19:04;;;;;;;;;3.25;3.25;;;;;29.11;63.49;98510.25;6244215;23;8806;-76
2021/06/08 01:21:33;;;;;;;;;3.50;3.50;;;;;29.21;63.39;98512.91;6244856;23;9500;-75
2021/06/08 01:24:03;;;;;;;;;3.00;3.00;;;;;29.26;63.28;98519.09;6246430;23;9601;-75
2021/06/08 01:26:33;;;;;;;;;3.75;3.75;;;;;29.27;62.92;98518.72;6244943;23;8793;-76
2021/06/08 01:29:04;;;;;;;;;3.25;3.25;;;;;29.23;62.83;98515.22;6243989;23;8794;-74
2021/06/08 01:31:35;;;;;;;;;2.75;2.75;;;;;29.26;62.88;98532.69;6243356;23;8791;-74
2021/06/08 01:34:04;;;;;;;;;3.00;3.00;;;;;29.28;62.78;98543.94;6243890;23;8899;-75
2021/06/08 01:36:38;;;;;;;;;3.25;3.25;;;;;29.30;62.75;98555.94;6243480;23;8895;-74
2021/06/08 01:39:07;;;;;;;;;2.25;2.25;;;;;29.28;62.37;98542.00;6245170;23;8806;-75
2021/06/08 01:41:38;;;;;;;;;2.75;2.75;;;;;29.35;62.59;98549.31;6245028;23;8787;-76
2021/06/08 01:44:07;;;;;;;;;3.00;3.00;;;;;29.41;62.47;98559.38;6245181;23;8904;-73
2021/06/08 01:46:35;;;;;;;;;2.00;2.00;;;;;29.45;62.43;98552.00;6244116;23;9543;-74
2021/06/08 01:49:04;;;;;;;;;2.00;2.00;;;;;29.52;62.14;98564.78;6242786;23;8795;-76
2021/06/08 01:51:57;;;;;;;;;3.50;3.50;;;;;29.58;61.92;98578.72;6243643;23;8779;-74
2021/06/08 01:55:05;;;;;;;;;2.50;2.50;;;;;29.52;61.92;98571.00;6244207;23;8799;-75
2021/06/08 01:57:40;;;;;;;;;2.50;2.50;;;;;29.53;61.99;98574.50;6243663;23;8795;-76
2021/06/08 02:00:17;;;;;;;;;3.75;2.75;;;;;29.43;62.10;98562.50;6245324;23;8842;-76
2021/06/08 02:02:57;;;;;;;;;2.50;2.50;;;;;29.50;62.08;98575.28;6244401;23;8897;-76
2021/06/08 02:05:58;;;;;;;;;3.50;3.50;;;;;29.43;61.79;98567.94;6244593;23;9527;-72
2021/06/08 02:08:50;;;;;;;;;3.25;3.25;;;;;29.53;61.90;98574.50;6242466;23;8802;-73
2021/06/08 02:11:42;;;;;;;;;2.50;2.50;;;;;29.49;61.96;98571.03;6243210;23;9585;-73
2021/06/08 02:14:28;;;;;;;;;2.00;2.00;;;;;29.55;61.58;98577.59;6243825;23;8852;-73
2021/06/08 02:17:04;;;;;;;;;2.75;2.75;;;;;29.57;61.35;98583.41;6243024;23;8872;-75
2021/06/08 02:19:37;;;;;;;;;3.00;3.00;;;;;29.34;61.24;98545.06;6243431;23;8860;-73
2021/06/08 02:22:09;;;;;;;;;4.50;4.50;;;;;29.55;61.82;98585.75;6243832;23;8806;-73
2021/06/08 02:24:38;;;;;;;;;3.50;3.50;;;;;29.55;61.54;98588.47;6245803;23;8859;-72
2021/06/08 02:27:11;;;;;;;;;2.75;2.75;;;;;29.54;61.78;98582.25;6243573;23;8791;-72
2021/06/08 02:29:43;;;;;;;;;3.50;3.50;;;;;29.37;61.00;98560.56;6243270;23;8802;-74
2021/06/08 02:32:13;;;;;;;;;1.75;1.75;;;;;29.54;61.33;98587.69;6243635;23;8787;-71
2021/06/08 02:34:43;;;;;;;;;2.00;2.00;;;;;29.43;60.96;98575.31;6243270;23;8952;-72
2021/06/08 02:37:17;;;;;;;;;2.50;2.50;;;;;29.58;61.32;98592.31;6242490;23;8868;-74
2021/06/08 02:39:47;;;;;;;;;3.75;3.75;;;;;29.57;61.07;98605.16;6242344;23;8848;-73
2021/06/08 02:42:18;;;;;;;;;1.75;1.75;;;;;29.57;61.12;98598.94;6242875;23;9624;-73
2021/06/08 02:44:49;;;;;;;;;1.50;1.50;;;;;29.51;60.91;98593.13;6242563;23;9664;-73
2021/06/08 02:47:19;;;;;;;;;2.25;2.25;;;;;29.56;61.00;98592.72;6241564;23;8802;-73
2021/06/08 02:49:49;;;;;;;;;2.25;2.25;;;;;29.58;61.09;98603.97;6240791;23;9563;-73
2021/06/08 02:52:20;;;;;;;;;1.75;1.75;;;;;29.63;60.76;98592.69;6241406;23;8810;-74
2021/06/08 02:54:52;;;;;;;;;2.50;2.50;;;;;29.72;60.29;98589.53;6241550;23;8787;-70
2021/06/08 02:57:22;;;;;;;;;2.75;2.75;;;;;29.79;60.61;98600.34;6241973;23;8811;-71
2021/06/08 02:59:53;;;;;;;;;2.75;2.75;;;;;29.77;60.29;98584.44;6241729;23;8815;-71
2021/06/08 03:02:24;;;;;;;;;2.25;2.25;;;;;29.83;60.02;98585.56;6242909;23;8817;-69
2021/06/08 03:05:15;;;;;;;;;2.00;2.00;;;;;29.99;60.44;98601.34;6242757;23;8886;-70
2021/06/08 03:07:48;;;;;;;;;1.75;1.75;;;;;29.98;59.63;98585.44;6241878;23;8798;-69
2021/06/08 03:10:20;;;;;;;;;1.75;1.75;;;;;30.08;59.50;98599.00;6242773;23;8880;-69
2021/06/08 03:12:55;;;;;;;;;1.00;1.00;;;;;30.16;59.45;98599.69;6243305;23;8864;-68
2021/06/08 03:15:29;;;;;;;;;1.25;1.25;;;;;30.19;58.30;98596.19;6243657;23;8794;-69
2021/06/08 03:17:58;;;;;;;;;2.75;2.75;;;;;30.15;59.19;98590.78;6242535;23;8815;-70
2021/06/08 03:20:56;;;;;;;;;1.75;1.75;;;;;30.28;59.48;98598.44;6242510;23;8779;-69
2021/06/08 03:23:28;;;;;;;;;1.00;1.00;;;;;30.30;58.26;98599.59;6242614;23;8802;-69
2021/06/08 03:26:00;;;;;;;;;1.00;1.00;;;;;30.33;58.32;98595.28;6245857;23;8821;-70
2021/06/08 03:28:31;;;;;;;;;2.75;2.75;;;;;30.35;57.96;98590.22;6242703;23;8799;-71
2021/06/08 03:31:01;;;;;;;;;4.75;4.75;;;;;30.36;58.65;98597.22;6241853;23;8782;-73
2021/06/08 03:33:32;;;;;;;;;0.75;0.75;;;;;30.41;58.67;98599.50;6242763;23;8865;-71
2021/06/08 03:36:01;;;;;;;;;3.00;3.00;;;;;30.42;58.21;98599.09;6243035;23;8810;-71
2021/06/08 03:38:32;;;;;;;;;1.75;1.75;;;;;30.44;58.13;98590.53;6242243;23;8795;-71
2021/06/08 03:41:01;;;;;;;;;2.00;2.00;;;;;30.49;58.78;98592.81;6240605;23;8799;-72
2021/06/08 03:43:30;;;;;;;;;2.40;2.40;;;;;30.45;57.59;98587.41;6242876;23;8786;-72
2021/06/08 03:45:59;;;;;;;;;0.00;0.00;;;;;30.52;57.99;98589.28;6242821;23;8786;-72
2021/06/08 03:48:28;;;;;;;;;1.00;1.00;;;;;30.50;58.37;98595.13;6242285;23;8849;-70
2021/06/08 03:50:58;;;;;;;;;2.60;2.60;;;;;30.56;58.26;98598.19;6242730;23;8795;-69
2021/06/08 03:53:26;;;;;;;;;2.00;2.00;;;;;30.54;57.87;98586.94;6243673;23;8798;-70
2021/06/08 03:55:55;;;;;;;;;3.25;3.25;;;;;30.50;58.85;98588.91;6217172;23;8779;-68
2021/06/08 03:58:25;;;;;;;;;1.20;1.20;;;;;30.55;57.82;98593.16;6217876;23;8852;-70
2021/06/08 04:00:58;;;;;;;;;2.00;2.00;;;;;30.55;57.36;98593.91;6242858;23;8806;-71
2021/06/08 04:03:29;;;;;;;;;1.40;1.40;;;;;30.55;55.98;98590.44;6246108;23;8872;-71
2021/06/08 04:05:58;;;;;;;;;2.40;2.40;;;;;30.56;57.99;98590.03;6245933;23;8876;-70
2021/06/08 04:08:27;;;;;;;;;1.75;1.75;;;;;30.48;57.46;98581.16;6246145;23;9577;-72
2021/06/08 04:10:57;;;;;;;;;1.00;1.00;;;;;30.50;57.44;98586.19;6244637;23;8795;-72
2021/06/08 04:13:25;;;;;;;;;1.20;1.20;;;;;30.55;57.01;98590.44;6245923;23;8799;-71
2021/06/08 04:15:54;;;;;;;;;2.50;2.50;;;;;30.49;57.67;98579.19;6245648;23;8799;-71
2021/06/08 04:18:31;;;;;;;;;2.00;2.00;;;;;30.56;57.13;98592.75;6248727;23;8795;-71
2021/06/08 04:20:59;;;;;;;;;3.00;3.00;;;;;30.57;56.57;98588.84;6247281;23;8775;-72
2021/06/08 04:23:29;;;;;;;;;3.20;3.20;;;;;30.50;57.09;98578.81;6245842;23;8806;-72
2021/06/08 04:25:58;;;;;;;;;4.75;4.75;;;;;30.60;57.83;98587.31;6245018;23;8889;-70
2021/06/08 04:28:28;;;;;;;;;1.40;1.40;;;;;30.58;57.59;98582.25;6245125;23;8799;-72
2021/06/08 04:30:57;;;;;;;;;1.60;1.60;;;;;30.40;56.84;98547.00;6244804;23;8908;-72
2021/06/08 04:33:29;;;;;;;;;2.00;2.00;;;;;30.61;57.48;98575.22;6218632;23;8880;-74
2021/06/08 04:36:01;;;;;;;;;1.80;1.80;;;;;30.51;57.54;98563.25;6245548;23;9563;-72
2021/06/08 04:38:32;;;;;;;;;1.80;1.80;;;;;30.48;56.26;98555.88;6244817;23;9618;-72
2021/06/08 04:41:01;;;;;;;;;1.80;1.80;;;;;30.60;57.35;98565.53;6244442;23;8791;-72
2021/06/08 04:43:29;;;;;;;;;5.60;3.80;;;;;30.59;57.67;98558.53;6243541;23;8856;-72
2021/06/08 04:46:07;;;;;;;;;3.00;3.00;;;;;30.69;57.82;98569.31;6244240;23;9646;-71
2021/06/08 04:48:35;;;;;;;;;1.00;1.00;;;;;30.71;57.17;98563.47;6244148;23;8891;-72
2021/06/08 04:51:05;;;;;;;;;2.20;2.00;;;;;30.71;58.22;98571.63;6244736;23;8852;-71
2021/06/08 04:53:34;;;;;;;;;1.80;1.80;;;;;30.70;57.24;98573.56;6244589;23;8779;-71
2021/06/08 04:56:05;;;;;;;;;2.00;2.00;;;;;30.69;57.19;98569.31;6244526;23;8876;-68
2021/06/08 04:58:39;;;;;;;;;1.20;1.20;;;;;30.62;57.74;98557.72;6244366;23;8802;-71
2021/06/08 05:01:27;;;;;;;;;1.75;1.75;;;;;30.66;57.37;98559.22;6244010;23;8872;-72
2021/06/08 05:04:02;;;;;;;;;1.80;1.80;;;;;30.64;56.89;98558.09;6243313;23;8798;-71
2021/06/08 05:06:36;;;;;;;;;2.00;2.00;;;;;30.68;57.85;98561.53;6244980;23;9483;-71
2021/06/08 05:09:19;;;;;;;;;3.00;3.00;;;;;30.66;57.81;98559.22;6245171;23;8813;-69
2021/06/08 05:11:56;;;;;;;;;2.00;2.00;;;;;30.63;57.47;98548.38;6243237;23;8807;-69
2021/06/08 05:14:29;;;;;;;;;1.40;1.40;;;;;30.67;57.14;98551.84;6242704;23;8786;-71
2021/06/08 05:17:00;;;;;;;;;1.40;1.40;;;;;30.64;56.96;98544.47;6243501;23;8783;-74
2021/06/08 05:19:29;;;;;;;;;1.60;1.60;;;;;30.71;57.00;98547.13;6216552;23;8917;-75
2021/06/08 05:21:59;;;;;;;;;1.00;1.00;;;;;30.71;57.40;98544.41;6243991;23;8811;-73
2021/06/08 05:24:28;;;;;;;;;2.00;2.00;;;;;30.69;57.55;98546.75;6242009;23;8779;-71
2021/06/08 05:26:58;;;;;;;;;2.00;2.00;;;;;30.70;57.64;98540.13;6216008;23;8802;-71
2021/06/08 05:29:26;;;;;;;;;3.00;3.00;;;;;30.73;57.59;98550.97;6243585;23;9609;-69
2021/06/08 05:31:58;;;;;;;;;2.40;2.40;;;;;30.71;57.67;98536.22;6241974;23;8876;-71
2021/06/08 05:34:27;;;;;;;;;3.40;3.40;;;;;30.75;57.58;98540.47;6241590;23;8860;-71
2021/06/08 05:36:56;;;;;;;;;2.00;2.00;;;;;30.76;57.88;98535.78;6242761;23;9476;-71
2021/06/08 05:39:35;;;;;;;;;2.60;2.60;;;;;30.77;57.70;98529.16;6243027;23;9460;-70
2021/06/08 05:42:07;;;;;;;;;2.50;2.00;;;;;30.79;57.04;98527.56;6242781;23;8815;-72
2021/06/08 05:44:36;;;;;;;;;3.00;3.00;;;;;30.77;56.97;98513.59;6240515;23;8893;-70
2021/06/08 05:47:06;;;;;;;;;2.80;2.80;;;;;30.84;56.94;98512.72;6241517;23;8794;-71
2021/06/08 05:49:38;;;;;;;;;1.80;1.80;;;;;30.92;56.68;98511.47;6241064;23;8879;-70
2021/06/08 05:52:10;;;;;;;;;5.50;5.50;;;;;30.94;56.16;98498.22;6241392;23;8870;-71
2021/06/08 05:54:38;;;;;;;;;2.00;2.00;;;;;31.08;55.92;98494.53;6240531;23;8892;-71
2021/06/08 05:57:10;;;;;;;;;2.20;2.20;;;;;31.11;55.92;98491.00;6215723;23;8903;-72
2021/06/08 05:59:41;;;;;;;;;6.40;6.40;;;;;31.23;56.48;98498.59;6242478;23;9655;-71
2021/06/08 06:02:15;;;;;;;;;2.20;2.20;;;;;31.34;56.19;98491.06;6242251;23;8815;-70
2021/06/08 06:04:45;;;;;;;;;2.20;2.20;;;;;31.47;56.60;98489.31;6241287;23;8811;-71
2021/06/08 06:07:16;;;;;;;;;2.00;2.00;;;;;31.60;55.60;98477.81;6244449;23;8837;-71
2021/06/08 06:09:45;;;;;;;;;2.00;2.00;;;;;31.70;55.29;98469.50;6241040;23;8871;-73
2021/06/08 06:12:14;;;;;;;;;3.80;3.80;;;;;31.88;54.62;98471.16;6240856;23;8790;-72
2021/06/08 06:14:47;;;;;;;;;2.60;2.60;;;;;32.01;55.40;98481.06;6215755;23;8786;-74
2021/06/08 06:17:19;;;;;;;;;2.00;2.00;;;;;32.09;53.61;98462.59;6243069;23;8975;-73
2021/06/08 06:19:48;;;;;;;;;1.40;1.40;;;;;32.25;52.74;98461.97;6243405;23;8888;-74
2021/06/08 06:22:18;;;;;;;;;1.00;1.00;;;;;32.40;50.94;98457.78;6244211;23;8791;-73
2021/06/08 06:24:47;;;;;;;;;2.60;2.60;;;;;32.54;52.06;98457.47;6243761;23;8864;-74
2021/06/08 06:27:16;;;;;;;;;2.80;2.80;;;;;32.59;52.99;98434.34;6243536;23;8787;-74
2021/06/08 06:29:48;;;;;;;;;1.00;1.00;;;;;32.78;52.42;98452.72;6243412;23;8787;-73
2021/06/08 06:32:20;;;;;;;;;1.20;1.20;;;;;32.86;51.91;98442.41;6243949;23;8835;-74
2021/06/08 06:34:49;;;;;;;;;2.60;2.60;;;;;32.98;52.58;98431.59;6243673;23;8782;-74
2021/06/08 06:37:23;;;;;;;;;2.00;2.00;;;;;33.08;50.69;98433.31;6243626;23;8782;-74
2021/06/08 06:39:55;;;;;;;;;2.00;2.00;;;;;33.18;50.46;98426.06;6244320;23;8795;-73
2021/06/08 06:42:28;;;;;;;;;2.00;2.00;;;;;33.20;50.94;98410.00;6244312;23;8814;-73
2021/06/08 06:44:59;;;;;;;;;2.40;2.40;;;;;33.22;50.43;98410.34;6244186;23;8799;-73
2021/06/08 06:47:28;;;;;;;;;2.20;2.20;;;;;33.26;51.61;98407.53;6218174;23;9567;-73
2021/06/08 06:49:57;;;;;;;;;1.60;1.60;;;;;33.25;50.96;98404.03;6244326;23;8787;-72
2021/06/08 06:52:26;;;;;;;;;2.60;2.60;;;;;33.25;51.42;98390.38;6245008;23;8857;-75
2021/06/08 06:54:54;;;;;;;;;0.60;0.60;;;;;33.27;50.17;98387.19;6244789;23;9492;-72
2021/06/08 06:57:24;;;;;;;;;2.00;2.00;;;;;33.29;50.74;98384.84;6243457;23;9577;-75
2021/06/08 06:59:54;;;;;;;;;2.00;2.00;;;;;33.32;50.73;98384.75;6241179;23;8815;-72
2021/06/08 07:02:24;;;;;;;;;2.20;2.20;;;;;33.33;51.85;98374.59;6243706;23;8779;-74
2021/06/08 07:04:56;;;;;;;;;2.80;2.80;;;;;33.39;50.63;98364.66;6244524;23;9523;-73
2021/06/08 07:07:25;;;;;;;;;2.60;2.60;;;;;33.43;51.26;98359.13;6244828;23;8814;-76
2021/06/08 07:09:55;;;;;;;;;3.40;3.40;;;;;33.53;50.92;98356.09;6243360;23;8787;-75
2021/06/08 07:12:23;;;;;;;;;2.60;2.60;;;;;33.58;49.75;98360.28;6244850;23;8794;-74
2021/06/08 07:14:52;;;;;;;;;1.80;1.80;;;;;33.63;51.29;98351.56;6245418;23;8786;-74
2021/06/08 07:17:23;;;;;;;;;1.80;1.80;;;;;33.65;51.09;98340.97;6246889;23;8872;-75
2021/06/08 07:19:55;;;;;;;;;2.60;2.60;;;;;33.61;50.74;98335.59;6244912;23;8798;-75
2021/06/08 07:22:26;;;;;;;;;2.60;2.60;;;;;33.59;48.40;98329.00;6245046;23;8868;-74
2021/06/08 07:24:55;;;;;;;;;1.60;1.60;;;;;33.59;49.94;98323.53;6244240;23;9488;-74
2021/06/08 07:27:24;;;;;;;;;3.00;3.00;;;;;33.53;50.32;98312.34;6244286;23;8798;-73
2021/06/08 07:29:53;;;;;;;;;1.60;1.60;;;;;33.57;49.47;98317.72;6244080;23;8806;-75
2021/06/08 07:32:25;;;;;;;;;2.60;2.60;;;;;33.60;50.26;98300.47;6244198;23;8797;-74
2021/06/08 07:35:03;;;;;;;;;2.20;2.20;;;;;33.62;49.40;98287.88;6244602;23;8805;-74
2021/06/08 07:37:35;;;;;;;;;1.40;1.40;;;;;33.66;50.13;98291.28;6246127;23;8782;-74
2021/06/08 07:40:10;;;;;;;;;2.00;2.00;;;;;33.68;49.10;98296.34;6246032;23;8801;-74
2021/06/08 07:42:46;;;;;;;;;1.80;1.80;;;;;33.70;48.83;98285.72;6246268;23;8858;-75
2021/06/08 07:45:23;;;;;;;;;2.00;2.00;;;;;33.67;50.75;98276.41;6247004;23;8848;-72
2021/06/08 07:47:54;;;;;;;;;2.80;2.80;;;;;33.70;50.00;98281.03;6246607;23;8798;-74
2021/06/08 07:50:30;;;;;;;;;1.00;1.00;;;;;33.70;49.16;98277.53;6245847;23;8786;-74
2021/06/08 07:53:01;;;;;;;;;1.00;1.00;;;;;33.65;48.61;98259.66;6246071;23;8779;-74
2021/06/08 07:55:31;;;;;;;;;2.00;2.00;;;;;33.69;50.05;98267.78;6246162;23;8884;-75
2021/06/08 07:58:00;;;;;;;;;1.40;1.40;;;;;33.70;49.77;98258.38;6246030;23;8814;-72
2021/06/08 08:00:30;;;;;;;;;2.00;2.00;;;;;33.70;49.96;98261.88;6245341;23;8791;-73
2021/06/08 08:03:25;;;;;;;;;2.00;2.00;;;;;33.70;48.68;98253.66;6245776;23;8814;-73
2021/06/08 08:05:50;;;;;;;;;3.00;3.00;;;;;33.72;49.97;98250.50;6246059;23;8795;-74
2021/06/08 08:08:20;;;;;;;;;2.00;2.00;;;;;33.71;49.32;98255.19;6246502;23;8816;-73
2021/06/08 08:10:51;;;;;;;;;2.20;2.20;;;;;33.64;48.95;98249.94;6246734;23;8795;-73
2021/06/08 08:13:24;;;;;;;;;0.40;0.40;;;;;33.64;49.26;98247.19;6246386;23;8798;-73
2021/06/08 08:16:03;;;;;;;;;4.40;4.40;;;;;33.64;49.00;98254.63;6246332;23;8806;-74
2021/06/08 08:18:34;;;;;;;;;2.00;2.00;;;;;33.63;48.61;98248.41;6247292;23;8790;-74
2021/06/08 08:21:07;;;;;;;;;3.00;3.00;;;;;33.67;48.19;98242.81;6246512;23;8782;-73
2021/06/08 08:23:37;;;;;;;;;2.00;2.00;;;;;33.67;50.28;98234.63;6246426;23;8860;-73
2021/06/08 08:26:07;;;;;;;;;2.80;2.80;;;;;33.67;49.85;98229.91;6246263;23;9524;-73
2021/06/08 08:28:38;;;;;;;;;2.00;2.00;;;;;33.71;47.43;98227.84;6246405;23;8783;-73
2021/06/08 08:31:14;;;;;;;;;3.00;3.00;;;;;33.75;50.03;98229.72;6246448;23;8782;-73
2021/06/08 08:33:44;;;;;;;;;2.80;2.80;;;;;33.77;48.20;98238.25;6246273;23;8787;-73
2021/06/08 08:36:14;;;;;;;;;1.40;1.40;;;;;33.76;49.18;98234.75;6246273;23;8790;-73
2021/06/08 08:38:42;;;;;;;;;2.40;2.40;;;;;33.75;50.01;98229.72;6219885;23;8791;-73
2021/06/08 08:41:37;;;;;;;;;2.00;2.00;;;;;33.77;49.63;98236.28;6246152;23;8774;-73
2021/06/08 08:44:07;;;;;;;;;2.00;2.00;;;;;33.76;49.04;98237.47;6246130;23;8867;-73
2021/06/08 08:46:37;;;;;;;;;3.80;3.80;;;;;33.75;48.62;98224.25;6246116;23;8860;-73
2021/06/08 08:49:06;;;;;;;;;3.20;3.20;;;;;33.74;50.10;98222.72;6245591;23;8799;-73
2021/06/08 08:51:38;;;;;;;;;2.40;2.40;;;;;33.69;49.84;98219.31;6245963;23;8809;-73
2021/06/08 08:54:08;;;;;;;;;3.00;3.00;;;;;33.67;49.89;98220.94;6246018;23;8806;-73
2021/06/08 08:56:38;;;;;;;;;2.40;2.40;;;;;33.60;50.48;98208.22;6245823;23;8785;-73
2021/06/08 08:59:09;;;;;;;;;4.00;4.00;;;;;33.52;49.86;98195.19;6245484;23;8787;-73
2021/06/08 09:01:41;;;;;;;;;3.00;3.00;;;;;33.52;49.57;98197.94;6245724;23;8860;-73
2021/06/08 09:04:10;;;;;;;;;2.60;2.60;;;;;33.50;49.73;98198.38;6245952;23;8841;-73
2021/06/08 09:06:40;;;;;;;;;3.20;3.20;;;;;33.42;50.46;98182.59;6245782;23;8790;-73
2021/06/08 09:09:10;;;;;;;;;2.60;2.60;;;;;33.43;49.97;98184.13;6245853;23;8876;-73
2021/06/08 09:11:43;;;;;;;;;3.00;3.00;;;;;33.45;50.63;98193.41;6245867;23;8766;-73
2021/06/08 09:14:15;;;;;;;;;4.00;4.00;;;;;33.46;51.10;98196.94;6245747;23;8775;-73
2021/06/08 09:16:44;;;;;;;;;4.00;4.00;;;;;33.44;50.65;98205.56;6246552;23;8844;-74
2021/06/08 09:19:13;;;;;;;;;2.80;2.80;;;;;33.43;50.60;98195.81;6246977;23;8818;-73
2021/06/08 09:21:44;;;;;;;;;3.00;3.00;;;;;33.43;52.39;98198.56;6246185;23;8798;-73
2021/06/08 09:24:31;;;;;;;;;3.40;3.40;;;;;33.37;52.87;98203.03;6246625;23;8775;-73
2021/06/08 09:27:08;;;;;;;;;4.40;4.40;;;;;33.15;52.96;98204.75;6246285;23;8790;-73
2021/06/08 09:29:42;;;;;;;;;4.60;4.60;;;;;33.00;52.31;98204.38;6219400;23;8783;-73
2021/06/08 09:32:21;;;;;;;;;3.40;3.40;;;;;32.85;52.82;98201.22;6245636;23;8794;-73
2021/06/08 09:34:53;;;;;;;;;3.20;3.20;;;;;32.83;52.37;98203.63;6245495;23;8797;-73
2021/06/08 09:37:43;;;;;;;;;3.60;3.60;;;;;32.84;52.31;98199.69;6245710;23;8779;-73
2021/06/08 09:40:24;;;;;;;;;4.00;4.00;;;;;32.79;52.12;98183.81;6245563;23;9460;-73
2021/06/08 09:43:06;;;;;;;;;4.00;4.00;;;;;32.98;51.94;98202.06;6245495;23;8806;-73
2021/06/08 09:45:46;;;;;;;;;3.20;3.20;;;;;33.04;51.64;98200.34;6245748;23;8799;-73
2021/06/08 09:48:15;;;;;;;;;3.40;3.40;;;;;33.12;52.10;98206.41;6245593;23;8775;-73
2021/06/08 09:50:49;;;;;;;;;4.40;4.40;;;;;33.18;51.85;98212.88;6245711;23;8787;-73
2021/06/08 09:53:21;;;;;;;;;3.00;3.00;;;;;33.16;51.35;98209.81;6245526;23;8787;-73
2021/06/08 09:55:57;;;;;;;;;3.60;3.60;;;;;33.25;51.29;98220.88;6219326;23;8775;-73
2021/06/08 09:58:28;;;;;;;;;3.00;3.00;;;;;33.25;51.17;98214.66;6245793;23;8856;-73
2021/06/08 10:01:19;;;;;;;;;3.00;3.00;;;;;33.29;51.17;98229.03;6218706;23;8795;-73
2021/06/08 10:04:01;;;;;;;;;4.60;4.60;;;;;33.25;51.36;98229.09;6245341;23;8791;-73
2021/06/08 10:06:38;;;;;;;;;3.80;3.80;;;;;33.28;50.92;98230.19;6245309;23;8783;-73
2021/06/08 10:09:12;;;;;;;;;3.00;3.00;;;;;33.28;49.97;98232.91;6245248;23;9496;-73
2021/06/08 10:11:42;;;;;;;;;2.60;2.60;;;;;33.27;50.66;98234.13;6246655;23;8868;-73
2021/06/08 10:14:20;;;;;;;;;4.80;4.80;;;;;33.22;50.97;98227.22;6245345;23;8813;-73
2021/06/08 10:17:09;;;;;;;;;2.60;2.60;;;;;33.27;51.42;98226.69;6245184;23;8786;-73
2021/06/08 10:19:38;;;;;;;;;3.00;3.00;;;;;33.26;51.10;98218.91;6245140;23;8791;-73
2021/06/08 10:22:27;;;;;;;;;3.40;3.40;;;;;33.23;51.47;98217.81;6245179;23;8802;-73
2021/06/08 10:24:56;;;;;;;;;4.00;4.00;;;;;33.19;51.57;98214.41;6244962;23;8802;-73
2021/06/08 10:27:25;;;;;;;;;3.00;3.00;;;;;33.01;51.23;98193.00;6245117;23;8791;-72
2021/06/08 10:29:53;;;;;;;;;2.80;2.80;;;;;33.12;51.23;98217.31;6244900;23;8790;-73
2021/06/08 10:32:22;;;;;;;;;4.60;4.60;;;;;33.05;52.02;98223.75;6245233;23;8798;-73
2021/06/08 10:34:51;;;;;;;;;2.60;2.60;;;;;33.03;52.37;98231.59;6245110;23;8798;-73
2021/06/08 10:37:20;;;;;;;;;3.00;3.00;;;;;32.99;51.79;98239.13;6245121;23;8840;-73
2021/06/08 10:39:49;;;;;;;;;4.00;4.00;;;;;32.94;51.41;98249.81;6244994;23;8799;-73
2021/06/08 10:42:18;;;;;;;;;4.60;4.60;;;;;32.92;51.78;98255.69;6245058;23;8779;-72
2021/06/08 10:44:46;;;;;;;;;2.20;2.20;;;;;32.88;51.44;98260.47;6245926;23;8794;-72
2021/06/08 10:47:24;;;;;;;;;2.80;2.80;;;;;32.85;51.55;98258.59;6245463;23;8787;-73
2021/06/08 10:49:53;;;;;;;;;4.60;4.60;;;;;32.83;52.16;98255.53;6245008;23;8879;-73
2021/06/08 10:52:22;;;;;;;;;3.80;3.80;;;;;32.80;53.03;98263.81;6244933;23;8903;-73
2021/06/08 10:54:53;;;;;;;;;3.20;3.20;;;;;32.67;53.09;98255.50;6245306;23;8833;-73
2021/06/08 10:57:22;;;;;;;;;3.00;3.00;;;;;32.53;53.73;98259.31;6244916;23;8814;-73
2021/06/08 10:59:52;;;;;;;;;4.00;4.00;;;;;32.40;53.72;98266.66;6244681;23;8794;-73
2021/06/08 11:02:43;;;;;;;;;3.00;3.00;;;;;32.29;53.25;98261.44;6245215;23;8790;-73
2021/06/08 11:05:14;;;;;;;;;3.00;3.00;;;;;32.22;53.37;98271.72;6245051;23;8822;-73
2021/06/08 11:07:52;;;;;;;;;4.00;4.00;;;;;32.17;53.54;98269.50;6244734;23;8770;-73
2021/06/08 11:10:27;;;;;;;;;4.00;4.00;;;;;32.17;53.73;98270.25;6245050;23;8883;-73
2021/06/08 11:13:27;;;;;;;;;4.00;4.00;;;;;32.16;53.23;98268.72;6246738;23;8783;-73
2021/06/08 11:16:28;;;;;;;;;4.20;4.20;;;;;32.19;52.95;98280.75;6246931;23;8864;-73
2021/06/08 11:18:57;;;;;;;;;3.40;3.40;;;;;32.21;52.90;98283.81;6246989;23;8791;-73
2021/06/08 11:21:28;;;;;;;;;4.60;4.60;;;;;32.23;53.36;98284.22;6246882;23;8862;-73
2021/06/08 11:23:58;;;;;;;;;6.80;6.80;;;;;32.23;53.49;98276.03;6247252;23;9554;-73
2021/06/08 11:26:49;;;;;;;;;9.80;9.80;;;;;32.27;53.83;98291.13;6246881;23;8790;-73
2021/06/08 11:29:46;;;;;;;;;4.00;4.00;;;;;32.28;53.29;98292.66;6247161;23;8787;-72
2021/06/08 11:32:30;;;;;;;;;4.80;4.80;;;;;32.24;53.10;98296.66;6246732;23;8861;-72
2021/06/08 11:35:23;;;;;;;;;4.40;4.40;;;;;32.18;53.52;98304.53;6246853;23;8787;-73
2021/06/08 11:38:25;;;;;;;;;4.00;4.00;;;;;32.09;53.18;98305.13;6246731;23;8791;-73
2021/06/08 11:40:59;;;;;;;;;2.40;2.40;;;;;32.03;53.42;98311.47;6246554;23;8786;-73
2021/06/08 11:43:28;;;;;;;;;3.20;3.20;;;;;32.00;53.29;98317.78;6247601;23;8794;-73
2021/06/08 11:46:11;;;;;;;;;4.00;4.00;;;;;31.99;53.26;98332.59;6246530;23;8774;-72
2021/06/08 11:48:49;;;;;;;;;4.60;4.60;;;;;31.99;53.02;98348.97;6247361;23;8868;-73
2021/06/08 11:51:24;;;;;;;;;3.00;3.00;;;;;31.99;52.99;98355.22;6246605;23;8786;-73
2021/06/08 11:54:19;;;;;;;;;2.40;2.40;;;;;31.92;54.13;98349.88;6247512;23;8819;-73
2021/06/08 11:57:00;;;;;;;;;3.20;3.20;;;;;31.79;54.47;98359.88;6246528;23;8778;-73
2021/06/08 11:59:55;;;;;;;;;2.40;2.40;;;;;31.63;55.13;98363.25;6246366;23;8791;-73
2021/06/08 12:02:37;;;;;;;;;1.00;1.00;;;;;31.45;55.57;98374.44;6247618;23;8881;-73
2021/06/08 12:05:23;;;;;;;;;0.80;0.80;;;;;31.26;55.51;98383.34;6246569;23;8783;-73
2021/06/08 12:07:55;;;;;;;;;0.80;0.80;;;;;30.93;55.35;98374.09;6246501;23;8840;-73
2021/06/08 12:10:38;;;;;;;;;0.60;0.60;;;;;30.95;56.39;98390.81;6249630;23;8794;-72